Atlantic City, NJ

3:41 PM EDT on August 30, 2014 (GMT -0400)
AC Bar and Grill | Change Station
CLOSE
Current Station
Personal Weather Station
Location: Atlantic City, NJ
Elevation: 10 ft
Nearby Weather Stations

Elev 10 ft 39.36 °N, 74.43 °W | Updated 2 seconds ago

Overcast
Overcast
79.8 °F
Feels Like 82 °F
N
5.3
Wind Variable Wind from North
Gusts 5.3 mph

Today
High -- | Low -- °F
--% Chance of Precip.
Yesterday
High -- | Low -- °F
Precip. -- in
6:24 AM 7:31 PM
Waxing Crescent, 24% visible
Pressure 30.22 in
Visibility 10.0 miles
Clouds Mostly Cloudy 4700 ft
Overcast 5500 ft
Heat Index 82 °F
Dew Point 66 °F
Humidity 63%
Rainfall 0.00 in
Snow Depth Not available.
UV 2 out of 12
Pollen 9.30 out of 12
Air Quality Not available.
Flu Activity Not available.
METAR KACY 301854Z 15009KT 10SM BKN047 OVC055 24/17 A3022 RMK AO2 SLP231 T02440172

More Conditions Fewer Conditions

Pressure 30.22 in
Visibility 10.0 miles
Clouds Mostly Cloudy 4700 ft
Overcast 5500 ft
Heat Index 82 °F
Dew Point 66 °F
Humidity 63%
Rainfall 0.00 in
Snow Depth Not available.
UV 2 out of 12
Pollen 9.30 out of 12
Air Quality Not available.
Flu Activity Not available.
METAR KACY 301854Z 15009KT 10SM BKN047 OVC055 24/17 A3022 RMK AO2 SLP231 T02440172

More Conditions Fewer Conditions

10-Day Weather Forecast

Almanac

Astronomy

Aug. 30, 2014 Rise Set
Actual Time 6:24 AM EDT 7:31 PM EDT
Civil Twilight 5:56 AM EDT 7:59 PM EDT
Nautical Twilight 5:23 AM EDT 8:32 PM EDT
Astronomical Twilight 4:49 AM EDT 9:06 PM EDT
Moon 11:07 AM EDT 10:06 PM EDT
Length of Visible Light 14h 02m
Length of Day
13h 07m
Tomorrow will be 2m 27s shorter.
Waxing Crescent, 24% of the Moon is Illuminated
Today
Waxing Crescent
Sep 2
First Quarter
Sep 8
Full
Sep 15
Last Quarter
Sep 24
New

Today's Extremes

State Highs State Lows

Community

WunderPhotos

Upload Photos

1,748,614 photos uploaded!

WunderBlogs® & News

Nearby

Snow Depth

Station Depth Elevation
No new snow has been reported.

Earthquake Activity

City Distance Mag. Time & Date
No recent earthquake activity has been reported nearby.
Minimum magnitude displayed is 2.5.

Coastal Water Temperatures

Place Temperature
Atlantic City, NJ 75.9 °F

Nearby Weather Stations